Main page
METAR-TAF:

METAR-TAF

Airports :

Ángel S. Adami Airport

Montevideo, Uruguay

latitude: 34-47S, longitude: 056-15W, elevation: 53 m

Current weather observation

The report was made 38 minutes ago, at 10:00 UTC
Wind 11 kt from the North/Northeast
Temperature 19°C
Humidity 83%
Pressure 1014 hPa
Visibility 10 km or more
no clouds below 1500 m and no cumulonimbus

METAR: SUAA 061000Z 02011KT CAVOK 19/16 Q1014

Time: 07:38 (10:38 UTC)

Forecast

The report was made 5 hours and 8 minutes ago, at 05:30 UTC
Forecast valid from 06 at 06 UTC to 07 at 06 UTC
Wind 5 kt from the North/Northeast
Visibility 10 km or more
no clouds below 1500 m and no cumulonimbus
Becoming
from 06 at 16 UTC to 06 at 18 UTC
Wind 13 kt from the Southeast

TAF: SUAA 060530Z 0606/0706 03005KT CAVOK TX35/0618Z TN19/0609Z BECMG 0616/0618 14013KT

Weather observations and forecasts of more than 4000 airports (METAR and TAF reports).

The available stations are represented by yellow and red dots on the map.

Hover mouse over dot to see the name of the station.

Then click to see weather observations and forecasts.

To change the map : click on the green buttons with a black cross to zoom in, on the green button with a dash to zoom out, or on the green arrows for adjacent maps.


METAR-TAF: